sensor_id;sensor_type;location;lat;lon;timestamp;P1;durP1;ratioP1;P2;durP2;ratioP2
54193;SDS011;40102;50.906;6.972;2023-08-01T00:01:31;0.85;;;0.50;;
54193;SDS011;40102;50.906;6.972;2023-08-01T00:03:57;1.40;;;0.50;;
54193;SDS011;40102;50.906;6.972;2023-08-01T00:06:22;1.13;;;0.43;;
54193;SDS011;40102;50.906;6.972;2023-08-01T00:08:49;0.22;;;0.22;;
54193;SDS011;40102;50.906;6.972;2023-08-01T00:11:15;0.55;;;0.40;;
54193;SDS011;40102;50.906;6.972;2023-08-01T00:13:41;1.27;;;0.30;;
54193;SDS011;40102;50.906;6.972;2023-08-01T00:16:06;1.77;;;0.30;;
54193;SDS011;40102;50.906;6.972;2023-08-01T00:18:32;0.57;;;0.50;;
54193;SDS011;40102;50.906;6.972;2023-08-01T00:20:57;0.60;;;0.40;;
54193;SDS011;40102;50.906;6.972;2023-08-01T00:23:23;0.30;;;0.28;;
54193;SDS011;40102;50.906;6.972;2023-08-01T00:25:49;0.43;;;0.30;;
54193;SDS011;40102;50.906;6.972;2023-08-01T00:28:17;1.10;;;0.40;;
54193;SDS011;40102;50.906;6.972;2023-08-01T00:30:42;0.30;;;0.30;;
54193;SDS011;40102;50.906;6.972;2023-08-01T00:33:08;0.50;;;0.30;;
54193;SDS011;40102;50.906;6.972;2023-08-01T00:35:33;1.05;;;0.40;;
54193;SDS011;40102;50.906;6.972;2023-08-01T00:37:59;1.17;;;0.40;;
54193;SDS011;40102;50.906;6.972;2023-08-01T00:40:29;0.40;;;0.40;;
54193;SDS011;40102;50.906;6.972;2023-08-01T00:42:58;1.77;;;0.35;;
54193;SDS011;40102;50.906;6.972;2023-08-01T00:45:24;0.20;;;0.20;;
54193;SDS011;40102;50.906;6.972;2023-08-01T00:47:50;1.08;;;0.30;;
54193;SDS011;40102;50.906;6.972;2023-08-01T00:50:18;0.60;;;0.30;;
54193;SDS011;40102;50.906;6.972;2023-08-01T00:52:45;0.40;;;0.20;;
54193;SDS011;40102;50.906;6.972;2023-08-01T00:55:12;0.57;;;0.30;;
54193;SDS011;40102;50.906;6.972;2023-08-01T00:57:38;1.90;;;0.47;;
54193;SDS011;40102;50.906;6.972;2023-08-01T01:00:04;0.95;;;0.40;;
54193;SDS011;40102;50.906;6.972;2023-08-01T01:02:29;0.63;;;0.30;;
54193;SDS011;40102;50.906;6.972;2023-08-01T01:04:55;0.35;;;0.20;;
54193;SDS011;40102;50.906;6.972;2023-08-01T01:07:20;0.43;;;0.20;;
54193;SDS011;40102;50.906;6.972;2023-08-01T01:09:47;1.30;;;0.20;;
54193;SDS011;40102;50.906;6.972;2023-08-01T01:12:12;2.28;;;0.30;;
54193;SDS011;40102;50.906;6.972;2023-08-01T01:14:37;0.10;;;0.10;;
54193;SDS011;40102;50.906;6.972;2023-08-01T01:17:03;0.10;;;0.10;;
54193;SDS011;40102;50.906;6.972;2023-08-01T01:19:29;0.52;;;0.40;;
54193;SDS011;40102;50.906;6.972;2023-08-01T01:21:54;0.35;;;0.20;;
54193;SDS011;40102;50.906;6.972;2023-08-01T01:24:21;0.20;;;0.20;;
54193;SDS011;40102;50.906;6.972;2023-08-01T01:26:48;0.75;;;0.10;;
54193;SDS011;40102;50.906;6.972;2023-08-01T01:29:14;0.10;;;0.10;;
54193;SDS011;40102;50.906;6.972;2023-08-01T01:31:40;1.25;;;0.20;;
54193;SDS011;40102;50.906;6.972;2023-08-01T01:34:07;2.08;;;0.20;;
54193;SDS011;40102;50.906;6.972;2023-08-01T01:36:33;1.33;;;0.25;;
54193;SDS011;40102;50.906;6.972;2023-08-01T01:38:59;1.75;;;0.20;;
54193;SDS011;40102;50.906;6.972;2023-08-01T01:41:24;0.75;;;0.13;;
54193;SDS011;40102;50.906;6.972;2023-08-01T01:43:50;1.27;;;0.20;;
54193;SDS011;40102;50.906;6.972;2023-08-01T01:46:16;0.50;;;0.10;;
54193;SDS011;40102;50.906;6.972;2023-08-01T01:48:41;0.75;;;0.20;;
54193;SDS011;40102;50.906;6.972;2023-08-01T01:51:07;0.10;;;0.10;;
54193;SDS011;40102;50.906;6.972;2023-08-01T01:53:32;0.40;;;0.10;;
54193;SDS011;40102;50.906;6.972;2023-08-01T01:55:58;1.05;;;0.20;;
54193;SDS011;40102;50.906;6.972;2023-08-01T01:58:23;1.02;;;0.20;;
54193;SDS011;40102;50.906;6.972;2023-08-01T02:00:49;0.52;;;0.10;;
54193;SDS011;40102;50.906;6.972;2023-08-01T02:03:14;0.30;;;0.20;;
54193;SDS011;40102;50.906;6.972;2023-08-01T02:05:40;0.20;;;0.10;;
54193;SDS011;40102;50.906;6.972;2023-08-01T02:08:06;0.22;;;0.20;;
54193;SDS011;40102;50.906;6.972;2023-08-01T02:10:31;0.25;;;0.10;;
54193;SDS011;40102;50.906;6.972;2023-08-01T02:12:57;0.10;;;0.10;;
54193;SDS011;40102;50.906;6.972;2023-08-01T02:15:22;0.20;;;0.10;;
54193;SDS011;40102;50.906;6.972;2023-08-01T02:17:48;0.20;;;0.10;;
54193;SDS011;40102;50.906;6.972;2023-08-01T02:20:13;0.65;;;0.10;;
54193;SDS011;40102;50.906;6.972;2023-08-01T02:22:38;0.38;;;0.15;;
54193;SDS011;40102;50.906;6.972;2023-08-01T02:25:04;0.30;;;0.10;;
54193;SDS011;40102;50.906;6.972;2023-08-01T02:27:29;0.10;;;0.10;;
54193;SDS011;40102;50.906;6.972;2023-08-01T02:29:58;4.05;;;0.30;;
54193;SDS011;40102;50.906;6.972;2023-08-01T02:32:23;0.43;;;0.20;;
54193;SDS011;40102;50.906;6.972;2023-08-01T02:34:49;0.40;;;0.20;;
54193;SDS011;40102;50.906;6.972;2023-08-01T02:37:14;0.50;;;0.30;;
54193;SDS011;40102;50.906;6.972;2023-08-01T02:39:39;0.63;;;0.30;;
54193;SDS011;40102;50.906;6.972;2023-08-01T02:42:05;0.63;;;0.20;;
54193;SDS011;40102;50.906;6.972;2023-08-01T02:44:30;0.38;;;0.20;;
54193;SDS011;40102;50.906;6.972;2023-08-01T02:46:56;0.47;;;0.30;;
54193;SDS011;40102;50.906;6.972;2023-08-01T02:49:21;3.13;;;0.40;;
54193;SDS011;40102;50.906;6.972;2023-08-01T02:51:46;2.25;;;0.30;;
54193;SDS011;40102;50.906;6.972;2023-08-01T02:54:12;0.30;;;0.30;;
54193;SDS011;40102;50.906;6.972;2023-08-01T02:56:37;1.58;;;0.30;;
54193;SDS011;40102;50.906;6.972;2023-08-01T02:59:09;1.08;;;0.32;;
54193;SDS011;40102;50.906;6.972;2023-08-01T03:01:38;0.43;;;0.30;;
54193;SDS011;40102;50.906;6.972;2023-08-01T03:04:04;0.90;;;0.43;;
54193;SDS011;40102;50.906;6.972;2023-08-01T03:06:31;0.88;;;0.50;;
54193;SDS011;40102;50.906;6.972;2023-08-01T03:08:57;0.52;;;0.45;;
54193;SDS011;40102;50.906;6.972;2023-08-01T03:11:23;0.85;;;0.50;;
54193;SDS011;40102;50.906;6.972;2023-08-01T03:13:48;0.77;;;0.47;;
54193;SDS011;40102;50.906;6.972;2023-08-01T03:16:14;0.52;;;0.40;;
54193;SDS011;40102;50.906;6.972;2023-08-01T03:18:40;0.68;;;0.50;;
54193;SDS011;40102;50.906;6.972;2023-08-01T03:21:05;0.40;;;0.40;;
54193;SDS011;40102;50.906;6.972;2023-08-01T03:23:31;0.45;;;0.40;;
54193;SDS011;40102;50.906;6.972;2023-08-01T03:25:56;1.83;;;0.60;;
54193;SDS011;40102;50.906;6.972;2023-08-01T03:28:22;0.50;;;0.50;;
54193;SDS011;40102;50.906;6.972;2023-08-01T03:30:47;0.90;;;0.60;;
54193;SDS011;40102;50.906;6.972;2023-08-01T03:33:15;2.05;;;0.50;;
54193;SDS011;40102;50.906;6.972;2023-08-01T03:35:41;1.15;;;0.60;;
54193;SDS011;40102;50.906;6.972;2023-08-01T03:38:06;0.60;;;0.50;;
54193;SDS011;40102;50.906;6.972;2023-08-01T03:40:32;2.13;;;0.70;;
54193;SDS011;40102;50.906;6.972;2023-08-01T03:42:57;1.67;;;0.70;;
54193;SDS011;40102;50.906;6.972;2023-08-01T03:45:23;1.33;;;0.70;;
54193;SDS011;40102;50.906;6.972;2023-08-01T03:47:48;2.58;;;0.80;;
54193;SDS011;40102;50.906;6.972;2023-08-01T03:50:13;2.13;;;1.00;;
54193;SDS011;40102;50.906;6.972;2023-08-01T03:52:42;1.20;;;0.90;;
54193;SDS011;40102;50.906;6.972;2023-08-01T03:55:07;2.33;;;0.82;;
54193;SDS011;40102;50.906;6.972;2023-08-01T03:57:33;4.80;;;1.20;;
54193;SDS011;40102;50.906;6.972;2023-08-01T03:59:59;4.18;;;0.95;;
54193;SDS011;40102;50.906;6.972;2023-08-01T04:02:25;2.83;;;1.20;;
54193;SDS011;40102;50.906;6.972;2023-08-01T04:04:50;2.58;;;1.23;;
54193;SDS011;40102;50.906;6.972;2023-08-01T04:07:16;1.70;;;1.58;;
54193;SDS011;40102;50.906;6.972;2023-08-01T04:09:41;1.30;;;1.20;;
54193;SDS011;40102;50.906;6.972;2023-08-01T04:12:07;2.28;;;1.35;;
54193;SDS011;40102;50.906;6.972;2023-08-01T04:14:33;1.55;;;1.40;;
54193;SDS011;40102;50.906;6.972;2023-08-01T04:16:59;2.78;;;1.67;;
54193;SDS011;40102;50.906;6.972;2023-08-01T04:19:24;4.50;;;2.05;;
54193;SDS011;40102;50.906;6.972;2023-08-01T04:21:50;7.97;;;1.88;;
54193;SDS011;40102;50.906;6.972;2023-08-01T04:24:15;4.53;;;1.98;;
54193;SDS011;40102;50.906;6.972;2023-08-01T04:26:41;3.78;;;1.77;;
54193;SDS011;40102;50.906;6.972;2023-08-01T04:29:06;1.73;;;1.40;;
54193;SDS011;40102;50.906;6.972;2023-08-01T04:31:32;3.97;;;2.00;;
54193;SDS011;40102;50.906;6.972;2023-08-01T04:33:57;3.83;;;1.70;;
54193;SDS011;40102;50.906;6.972;2023-08-01T04:36:22;4.93;;;2.03;;
54193;SDS011;40102;50.906;6.972;2023-08-01T04:38:48;2.38;;;1.83;;
54193;SDS011;40102;50.906;6.972;2023-08-01T04:41:13;3.80;;;2.20;;
54193;SDS011;40102;50.906;6.972;2023-08-01T04:43:39;4.40;;;2.00;;
54193;SDS011;40102;50.906;6.972;2023-08-01T04:46:04;5.47;;;2.30;;
54193;SDS011;40102;50.906;6.972;2023-08-01T04:48:29;3.75;;;2.30;;
54193;SDS011;40102;50.906;6.972;2023-08-01T04:50:55;5.22;;;2.47;;
54193;SDS011;40102;50.906;6.972;2023-08-01T04:53:20;5.07;;;2.00;;
54193;SDS011;40102;50.906;6.972;2023-08-01T04:55:45;4.95;;;2.20;;
54193;SDS011;40102;50.906;6.972;2023-08-01T04:58:11;3.92;;;2.10;;
54193;SDS011;40102;50.906;6.972;2023-08-01T05:00:37;4.53;;;2.30;;
54193;SDS011;40102;50.906;6.972;2023-08-01T05:03:02;4.45;;;2.30;;
54193;SDS011;40102;50.906;6.972;2023-08-01T05:05:28;4.63;;;2.35;;
54193;SDS011;40102;50.906;6.972;2023-08-01T05:07:53;4.43;;;2.30;;
54193;SDS011;40102;50.906;6.972;2023-08-01T05:10:18;3.60;;;1.92;;
54193;SDS011;40102;50.906;6.972;2023-08-01T05:12:44;6.63;;;2.15;;
54193;SDS011;40102;50.906;6.972;2023-08-01T05:15:09;3.22;;;2.30;;
54193;SDS011;40102;50.906;6.972;2023-08-01T05:17:35;5.22;;;2.63;;
54193;SDS011;40102;50.906;6.972;2023-08-01T05:20:00;3.92;;;1.98;;
54193;SDS011;40102;50.906;6.972;2023-08-01T05:22:26;4.25;;;2.55;;
54193;SDS011;40102;50.906;6.972;2023-08-01T05:24:52;6.25;;;2.60;;
54193;SDS011;40102;50.906;6.972;2023-08-01T05:27:17;6.18;;;2.47;;
54193;SDS011;40102;50.906;6.972;2023-08-01T05:29:42;4.75;;;1.90;;
54193;SDS011;40102;50.906;6.972;2023-08-01T05:32:08;4.72;;;2.15;;
54193;SDS011;40102;50.906;6.972;2023-08-01T05:34:33;5.38;;;2.55;;
54193;SDS011;40102;50.906;6.972;2023-08-01T05:36:59;6.60;;;2.50;;
54193;SDS011;40102;50.906;6.972;2023-08-01T05:39:24;7.95;;;2.60;;
54193;SDS011;40102;50.906;6.972;2023-08-01T05:41:49;3.92;;;2.10;;
54193;SDS011;40102;50.906;6.972;2023-08-01T05:44:15;5.40;;;2.35;;
54193;SDS011;40102;50.906;6.972;2023-08-01T05:46:41;4.93;;;2.10;;
54193;SDS011;40102;50.906;6.972;2023-08-01T05:49:06;8.05;;;2.33;;
54193;SDS011;40102;50.906;6.972;2023-08-01T05:51:32;6.15;;;2.40;;
54193;SDS011;40102;50.906;6.972;2023-08-01T05:53:57;7.05;;;2.22;;
54193;SDS011;40102;50.906;6.972;2023-08-01T05:56:23;5.00;;;2.10;;
54193;SDS011;40102;50.906;6.972;2023-08-01T05:58:48;6.65;;;2.22;;
54193;SDS011;40102;50.906;6.972;2023-08-01T06:01:15;6.68;;;2.40;;
54193;SDS011;40102;50.906;6.972;2023-08-01T06:03:40;5.97;;;2.25;;
54193;SDS011;40102;50.906;6.972;2023-08-01T06:06:05;3.38;;;2.20;;
54193;SDS011;40102;50.906;6.972;2023-08-01T06:08:31;6.45;;;2.33;;
54193;SDS011;40102;50.906;6.972;2023-08-01T06:10:56;6.43;;;2.25;;
54193;SDS011;40102;50.906;6.972;2023-08-01T06:13:22;4.50;;;2.20;;
54193;SDS011;40102;50.906;6.972;2023-08-01T06:15:47;5.32;;;2.40;;
54193;SDS011;40102;50.906;6.972;2023-08-01T06:18:13;4.72;;;2.30;;
54193;SDS011;40102;50.906;6.972;2023-08-01T06:20:38;5.50;;;1.83;;
54193;SDS011;40102;50.906;6.972;2023-08-01T06:23:04;6.53;;;2.53;;
54193;SDS011;40102;50.906;6.972;2023-08-01T06:25:30;4.53;;;2.22;;
54193;SDS011;40102;50.906;6.972;2023-08-01T06:27:55;7.88;;;2.63;;
54193;SDS011;40102;50.906;6.972;2023-08-01T06:30:20;6.45;;;2.88;;
54193;SDS011;40102;50.906;6.972;2023-08-01T06:32:46;6.00;;;2.75;;
54193;SDS011;40102;50.906;6.972;2023-08-01T06:35:11;6.05;;;2.50;;
54193;SDS011;40102;50.906;6.972;2023-08-01T06:37:36;4.15;;;2.20;;
54193;SDS011;40102;50.906;6.972;2023-08-01T06:40:02;4.78;;;2.70;;
54193;SDS011;40102;50.906;6.972;2023-08-01T06:42:28;6.97;;;2.60;;
54193;SDS011;40102;50.906;6.972;2023-08-01T06:44:53;6.35;;;2.40;;
54193;SDS011;40102;50.906;6.972;2023-08-01T06:47:18;8.48;;;3.15;;
54193;SDS011;40102;50.906;6.972;2023-08-01T06:49:44;4.97;;;2.60;;
54193;SDS011;40102;50.906;6.972;2023-08-01T06:52:09;6.97;;;2.60;;
54193;SDS011;40102;50.906;6.972;2023-08-01T06:54:35;6.03;;;2.90;;
54193;SDS011;40102;50.906;6.972;2023-08-01T06:57:00;7.75;;;2.53;;
54193;SDS011;40102;50.906;6.972;2023-08-01T06:59:26;5.13;;;2.60;;
54193;SDS011;40102;50.906;6.972;2023-08-01T07:01:51;4.95;;;2.75;;
54193;SDS011;40102;50.906;6.972;2023-08-01T07:04:17;5.45;;;2.70;;
54193;SDS011;40102;50.906;6.972;2023-08-01T07:06:43;5.13;;;2.05;;
54193;SDS011;40102;50.906;6.972;2023-08-01T07:09:09;4.90;;;2.47;;
54193;SDS011;40102;50.906;6.972;2023-08-01T07:11:35;5.53;;;2.88;;
54193;SDS011;40102;50.906;6.972;2023-08-01T07:14:01;3.95;;;2.72;;
54193;SDS011;40102;50.906;6.972;2023-08-01T07:16:26;8.65;;;2.85;;
54193;SDS011;40102;50.906;6.972;2023-08-01T07:18:52;7.30;;;2.95;;
54193;SDS011;40102;50.906;6.972;2023-08-01T07:21:17;5.75;;;2.90;;
54193;SDS011;40102;50.906;6.972;2023-08-01T07:23:43;4.53;;;3.00;;
54193;SDS011;40102;50.906;6.972;2023-08-01T07:26:08;6.07;;;2.90;;
54193;SDS011;40102;50.906;6.972;2023-08-01T07:28:34;5.80;;;3.03;;
54193;SDS011;40102;50.906;6.972;2023-08-01T07:31:04;5.05;;;2.97;;
54193;SDS011;40102;50.906;6.972;2023-08-01T07:33:31;7.03;;;2.88;;
54193;SDS011;40102;50.906;6.972;2023-08-01T07:35:58;8.88;;;3.10;;
54193;SDS011;40102;50.906;6.972;2023-08-01T07:38:23;6.18;;;3.38;;
54193;SDS011;40102;50.906;6.972;2023-08-01T07:40:49;6.85;;;3.35;;
54193;SDS011;40102;50.906;6.972;2023-08-01T07:43:15;8.32;;;3.35;;
54193;SDS011;40102;50.906;6.972;2023-08-01T07:45:41;5.88;;;2.80;;
54193;SDS011;40102;50.906;6.972;2023-08-01T07:48:06;4.03;;;2.63;;
54193;SDS011;40102;50.906;6.972;2023-08-01T07:50:32;7.40;;;2.72;;
54193;SDS011;40102;50.906;6.972;2023-08-01T07:52:57;6.97;;;3.33;;
54193;SDS011;40102;50.906;6.972;2023-08-01T07:55:23;7.85;;;2.90;;
54193;SDS011;40102;50.906;6.972;2023-08-01T07:57:48;5.10;;;2.65;;
54193;SDS011;40102;50.906;6.972;2023-08-01T08:00:14;6.25;;;2.70;;
54193;SDS011;40102;50.906;6.972;2023-08-01T08:02:43;7.63;;;3.08;;
54193;SDS011;40102;50.906;6.972;2023-08-01T08:05:10;7.30;;;2.50;;
54193;SDS011;40102;50.906;6.972;2023-08-01T08:07:36;7.88;;;2.75;;
54193;SDS011;40102;50.906;6.972;2023-08-01T08:10:02;6.50;;;2.85;;
54193;SDS011;40102;50.906;6.972;2023-08-01T08:12:28;6.35;;;2.47;;
54193;SDS011;40102;50.906;6.972;2023-08-01T08:14:54;6.00;;;2.75;;
54193;SDS011;40102;50.906;6.972;2023-08-01T08:17:19;5.60;;;3.20;;
54193;SDS011;40102;50.906;6.972;2023-08-01T08:19:45;5.25;;;2.60;;
54193;SDS011;40102;50.906;6.972;2023-08-01T08:22:10;8.23;;;3.08;;
54193;SDS011;40102;50.906;6.972;2023-08-01T08:24:35;7.65;;;3.00;;
54193;SDS011;40102;50.906;6.972;2023-08-01T08:27:01;4.85;;;2.80;;
54193;SDS011;40102;50.906;6.972;2023-08-01T08:29:26;9.60;;;2.97;;
54193;SDS011;40102;50.906;6.972;2023-08-01T08:31:52;6.22;;;2.72;;
54193;SDS011;40102;50.906;6.972;2023-08-01T08:34:17;8.20;;;3.45;;
54193;SDS011;40102;50.906;6.972;2023-08-01T08:36:42;6.68;;;2.80;;
54193;SDS011;40102;50.906;6.972;2023-08-01T08:39:08;7.35;;;3.28;;
54193;SDS011;40102;50.906;6.972;2023-08-01T08:41:35;9.73;;;3.17;;
54193;SDS011;40102;50.906;6.972;2023-08-01T08:44:10;7.30;;;2.75;;
54193;SDS011;40102;50.906;6.972;2023-08-01T08:46:40;6.10;;;2.92;;
54193;SDS011;40102;50.906;6.972;2023-08-01T08:49:10;7.68;;;2.83;;
54193;SDS011;40102;50.906;6.972;2023-08-01T08:51:36;7.43;;;2.80;;
54193;SDS011;40102;50.906;6.972;2023-08-01T08:54:06;7.05;;;3.10;;
54193;SDS011;40102;50.906;6.972;2023-08-01T08:56:32;9.40;;;3.03;;
54193;SDS011;40102;50.906;6.972;2023-08-01T08:58:58;6.13;;;2.50;;
54193;SDS011;40102;50.906;6.972;2023-08-01T09:01:25;4.43;;;2.08;;
54193;SDS011;40102;50.906;6.972;2023-08-01T09:03:51;5.40;;;2.40;;
54193;SDS011;40102;50.906;6.972;2023-08-01T09:06:19;4.93;;;1.98;;
54193;SDS011;40102;50.906;6.972;2023-08-01T09:08:55;5.55;;;2.05;;
54193;SDS011;40102;50.906;6.972;2023-08-01T09:11:26;4.07;;;2.10;;
54193;SDS011;40102;50.906;6.972;2023-08-01T09:13:51;3.72;;;2.08;;
54193;SDS011;40102;50.906;6.972;2023-08-01T09:16:18;6.00;;;2.20;;
54193;SDS011;40102;50.906;6.972;2023-08-01T09:18:51;8.23;;;2.45;;
54193;SDS011;40102;50.906;6.972;2023-08-01T09:21:17;5.07;;;2.30;;
54193;SDS011;40102;50.906;6.972;2023-08-01T09:23:43;5.32;;;2.05;;
54193;SDS011;40102;50.906;6.972;2023-08-01T09:26:12;2.67;;;2.03;;
54193;SDS011;40102;50.906;6.972;2023-08-01T09:28:41;4.75;;;2.05;;
54193;SDS011;40102;50.906;6.972;2023-08-01T09:31:07;4.07;;;2.08;;
54193;SDS011;40102;50.906;6.972;2023-08-01T09:33:39;6.05;;;2.30;;
54193;SDS011;40102;50.906;6.972;2023-08-01T09:36:06;5.82;;;2.30;;
54193;SDS011;40102;50.906;6.972;2023-08-01T09:38:33;10.50;;;2.60;;
54193;SDS011;40102;50.906;6.972;2023-08-01T09:41:00;7.15;;;2.53;;
54193;SDS011;40102;50.906;6.972;2023-08-01T09:43:32;7.90;;;2.55;;
54193;SDS011;40102;50.906;6.972;2023-08-01T09:45:59;21.83;;;2.50;;
54193;SDS011;40102;50.906;6.972;2023-08-01T09:48:25;5.22;;;2.33;;
54193;SDS011;40102;50.906;6.972;2023-08-01T09:50:52;7.00;;;2.17;;
54193;SDS011;40102;50.906;6.972;2023-08-01T09:53:29;5.07;;;1.90;;
54193;SDS011;40102;50.906;6.972;2023-08-01T09:55:54;8.05;;;2.30;;
54193;SDS011;40102;50.906;6.972;2023-08-01T09:58:21;4.90;;;2.03;;
54193;SDS011;40102;50.906;6.972;2023-08-01T10:00:49;5.55;;;1.90;;
54193;SDS011;40102;50.906;6.972;2023-08-01T10:03:16;4.00;;;2.05;;
54193;SDS011;40102;50.906;6.972;2023-08-01T10:05:42;4.30;;;2.00;;
54193;SDS011;40102;50.906;6.972;2023-08-01T10:08:08;6.22;;;2.25;;
54193;SDS011;40102;50.906;6.972;2023-08-01T10:10:34;3.47;;;1.90;;
54193;SDS011;40102;50.906;6.972;2023-08-01T10:13:00;8.30;;;2.40;;
54193;SDS011;40102;50.906;6.972;2023-08-01T10:15:27;5.45;;;1.95;;
54193;SDS011;40102;50.906;6.972;2023-08-01T10:17:54;5.57;;;2.10;;
54193;SDS011;40102;50.906;6.972;2023-08-01T10:20:20;10.23;;;2.35;;
54193;SDS011;40102;50.906;6.972;2023-08-01T10:22:47;3.10;;;1.90;;
54193;SDS011;40102;50.906;6.972;2023-08-01T10:25:15;5.45;;;2.13;;
54193;SDS011;40102;50.906;6.972;2023-08-01T10:27:41;4.85;;;1.88;;
54193;SDS011;40102;50.906;6.972;2023-08-01T10:30:07;4.72;;;2.10;;
54193;SDS011;40102;50.906;6.972;2023-08-01T10:32:35;4.22;;;2.05;;
54193;SDS011;40102;50.906;6.972;2023-08-01T10:35:03;5.30;;;2.00;;
54193;SDS011;40102;50.906;6.972;2023-08-01T10:37:39;3.60;;;2.00;;
54193;SDS011;40102;50.906;6.972;2023-08-01T10:40:06;3.70;;;1.98;;
54193;SDS011;40102;50.906;6.972;2023-08-01T10:42:41;7.63;;;2.53;;
54193;SDS011;40102;50.906;6.972;2023-08-01T10:45:19;4.93;;;2.25;;
54193;SDS011;40102;50.906;6.972;2023-08-01T10:47:46;7.40;;;2.03;;
54193;SDS011;40102;50.906;6.972;2023-08-01T10:50:14;7.15;;;2.08;;
54193;SDS011;40102;50.906;6.972;2023-08-01T10:52:41;3.00;;;1.48;;
54193;SDS011;40102;50.906;6.972;2023-08-01T10:55:06;5.00;;;1.80;;
54193;SDS011;40102;50.906;6.972;2023-08-01T10:57:34;4.50;;;1.40;;
54193;SDS011;40102;50.906;6.972;2023-08-01T11:00:02;2.95;;;1.48;;
54193;SDS011;40102;50.906;6.972;2023-08-01T11:02:34;3.63;;;1.45;;
54193;SDS011;40102;50.906;6.972;2023-08-01T11:05:04;3.97;;;1.60;;
54193;SDS011;40102;50.906;6.972;2023-08-01T11:07:31;6.00;;;1.70;;
54193;SDS011;40102;50.906;6.972;2023-08-01T11:10:10;4.35;;;1.42;;
54193;SDS011;40102;50.906;6.972;2023-08-01T11:15:08;3.90;;;1.48;;
54193;SDS011;40102;50.906;6.972;2023-08-01T11:17:38;6.90;;;1.90;;
54193;SDS011;40102;50.906;6.972;2023-08-01T11:22:32;3.30;;;1.55;;
54193;SDS011;40102;50.906;6.972;2023-08-01T11:24:58;4.10;;;1.42;;
54193;SDS011;40102;50.906;6.972;2023-08-01T11:27:24;3.03;;;1.35;;
54193;SDS011;40102;50.906;6.972;2023-08-01T11:29:51;3.15;;;1.40;;
54193;SDS011;40102;50.906;6.972;2023-08-01T11:32:17;4.32;;;1.63;;
54193;SDS011;40102;50.906;6.972;2023-08-01T11:34:43;4.40;;;1.70;;
54193;SDS011;40102;50.906;6.972;2023-08-01T11:37:11;3.38;;;1.55;;
54193;SDS011;40102;50.906;6.972;2023-08-01T11:39:38;4.25;;;1.63;;
54193;SDS011;40102;50.906;6.972;2023-08-01T11:42:04;2.72;;;1.30;;
54193;SDS011;40102;50.906;6.972;2023-08-01T11:44:30;4.32;;;1.60;;
54193;SDS011;40102;50.906;6.972;2023-08-01T11:46:55;2.35;;;1.30;;
54193;SDS011;40102;50.906;6.972;2023-08-01T11:49:21;4.03;;;1.38;;
54193;SDS011;40102;50.906;6.972;2023-08-01T11:51:47;4.10;;;1.60;;
54193;SDS011;40102;50.906;6.972;2023-08-01T11:54:13;5.53;;;1.60;;
54193;SDS011;40102;50.906;6.972;2023-08-01T11:56:39;4.13;;;1.60;;
54193;SDS011;40102;50.906;6.972;2023-08-01T12:01:37;3.20;;;1.40;;
54193;SDS011;40102;50.906;6.972;2023-08-01T12:04:10;3.53;;;1.30;;
54193;SDS011;40102;50.906;6.972;2023-08-01T12:06:36;6.43;;;1.50;;
54193;SDS011;40102;50.906;6.972;2023-08-01T12:09:08;2.67;;;1.20;;
54193;SDS011;40102;50.906;6.972;2023-08-01T12:11:35;2.75;;;1.30;;
54193;SDS011;40102;50.906;6.972;2023-08-01T12:14:08;2.42;;;1.27;;
54193;SDS011;40102;50.906;6.972;2023-08-01T12:16:45;4.88;;;1.50;;
54193;SDS011;40102;50.906;6.972;2023-08-01T12:19:16;1.95;;;1.20;;
54193;SDS011;40102;50.906;6.972;2023-08-01T12:21:43;6.72;;;1.60;;
54193;SDS011;40102;50.906;6.972;2023-08-01T12:24:09;2.83;;;1.42;;
54193;SDS011;40102;50.906;6.972;2023-08-01T12:26:34;5.07;;;1.30;;
54193;SDS011;40102;50.906;6.972;2023-08-01T12:29:00;4.07;;;1.67;;
54193;SDS011;40102;50.906;6.972;2023-08-01T12:31:25;6.50;;;1.83;;
54193;SDS011;40102;50.906;6.972;2023-08-01T12:33:50;8.18;;;1.83;;
54193;SDS011;40102;50.906;6.972;2023-08-01T12:36:18;3.72;;;1.35;;
54193;SDS011;40102;50.906;6.972;2023-08-01T12:38:43;3.70;;;1.33;;
54193;SDS011;40102;50.906;6.972;2023-08-01T12:41:08;4.35;;;1.40;;
54193;SDS011;40102;50.906;6.972;2023-08-01T12:43:34;4.72;;;1.67;;
54193;SDS011;40102;50.906;6.972;2023-08-01T12:45:59;3.92;;;1.63;;
54193;SDS011;40102;50.906;6.972;2023-08-01T12:48:25;5.82;;;1.65;;
54193;SDS011;40102;50.906;6.972;2023-08-01T12:50:51;4.32;;;1.60;;
54193;SDS011;40102;50.906;6.972;2023-08-01T12:53:16;4.45;;;1.58;;
54193;SDS011;40102;50.906;6.972;2023-08-01T12:55:48;2.85;;;1.35;;
54193;SDS011;40102;50.906;6.972;2023-08-01T12:58:15;4.28;;;1.58;;
54193;SDS011;40102;50.906;6.972;2023-08-01T13:00:41;4.43;;;1.55;;
54193;SDS011;40102;50.906;6.972;2023-08-01T13:03:08;2.72;;;1.40;;
54193;SDS011;40102;50.906;6.972;2023-08-01T13:05:37;4.38;;;1.38;;
54193;SDS011;40102;50.906;6.972;2023-08-01T13:08:04;2.80;;;1.45;;
54193;SDS011;40102;50.906;6.972;2023-08-01T13:10:34;4.97;;;1.42;;
54193;SDS011;40102;50.906;6.972;2023-08-01T13:13:00;2.10;;;1.30;;
54193;SDS011;40102;50.906;6.972;2023-08-01T13:15:26;3.20;;;1.33;;
54193;SDS011;40102;50.906;6.972;2023-08-01T13:17:52;3.70;;;1.38;;
54193;SDS011;40102;50.906;6.972;2023-08-01T13:20:18;3.03;;;1.55;;
54193;SDS011;40102;50.906;6.972;2023-08-01T13:22:48;3.28;;;1.10;;
54193;SDS011;40102;50.906;6.972;2023-08-01T13:25:14;3.15;;;1.30;;
54193;SDS011;40102;50.906;6.972;2023-08-01T13:27:40;2.33;;;0.90;;
54193;SDS011;40102;50.906;6.972;2023-08-01T13:30:06;3.58;;;1.10;;
54193;SDS011;40102;50.906;6.972;2023-08-01T13:32:33;2.33;;;1.10;;
54193;SDS011;40102;50.906;6.972;2023-08-01T13:34:58;2.58;;;1.27;;
54193;SDS011;40102;50.906;6.972;2023-08-01T13:37:24;3.30;;;1.38;;
54193;SDS011;40102;50.906;6.972;2023-08-01T13:39:49;2.40;;;1.10;;
54193;SDS011;40102;50.906;6.972;2023-08-01T13:42:14;2.63;;;1.30;;
54193;SDS011;40102;50.906;6.972;2023-08-01T13:44:40;2.85;;;1.27;;
54193;SDS011;40102;50.906;6.972;2023-08-01T13:47:06;4.13;;;1.40;;
54193;SDS011;40102;50.906;6.972;2023-08-01T13:49:32;2.85;;;1.17;;
54193;SDS011;40102;50.906;6.972;2023-08-01T13:51:57;3.50;;;1.10;;
54193;SDS011;40102;50.906;6.972;2023-08-01T13:54:23;3.33;;;1.50;;
54193;SDS011;40102;50.906;6.972;2023-08-01T13:56:48;3.05;;;1.20;;
54193;SDS011;40102;50.906;6.972;2023-08-01T13:59:14;2.20;;;1.20;;
54193;SDS011;40102;50.906;6.972;2023-08-01T14:01:40;4.88;;;1.35;;
54193;SDS011;40102;50.906;6.972;2023-08-01T14:04:05;3.70;;;1.40;;
54193;SDS011;40102;50.906;6.972;2023-08-01T14:06:31;3.63;;;1.45;;
54193;SDS011;40102;50.906;6.972;2023-08-01T14:08:56;2.15;;;1.20;;
54193;SDS011;40102;50.906;6.972;2023-08-01T14:11:21;4.00;;;1.25;;
54193;SDS011;40102;50.906;6.972;2023-08-01T14:13:48;3.33;;;1.48;;
54193;SDS011;40102;50.906;6.972;2023-08-01T14:16:14;4.13;;;1.23;;
54193;SDS011;40102;50.906;6.972;2023-08-01T14:18:39;5.38;;;1.50;;
54193;SDS011;40102;50.906;6.972;2023-08-01T14:21:05;2.97;;;1.40;;
54193;SDS011;40102;50.906;6.972;2023-08-01T14:23:31;5.50;;;1.50;;
54193;SDS011;40102;50.906;6.972;2023-08-01T14:25:59;3.63;;;1.40;;
54193;SDS011;40102;50.906;6.972;2023-08-01T14:28:25;6.32;;;1.50;;
54193;SDS011;40102;50.906;6.972;2023-08-01T14:30:50;3.80;;;1.30;;
54193;SDS011;40102;50.906;6.972;2023-08-01T14:33:16;4.82;;;1.52;;
54193;SDS011;40102;50.906;6.972;2023-08-01T14:35:41;3.17;;;1.52;;
54193;SDS011;40102;50.906;6.972;2023-08-01T14:38:07;4.20;;;1.80;;
54193;SDS011;40102;50.906;6.972;2023-08-01T14:40:33;3.92;;;1.42;;
54193;SDS011;40102;50.906;6.972;2023-08-01T14:43:00;3.08;;;1.20;;
54193;SDS011;40102;50.906;6.972;2023-08-01T14:45:27;3.42;;;1.40;;
54193;SDS011;40102;50.906;6.972;2023-08-01T14:47:52;4.15;;;1.42;;
54193;SDS011;40102;50.906;6.972;2023-08-01T14:50:18;2.45;;;1.45;;